METAR Data
IDs: Format: Raw Decoded Include TAF

Data at: 0732 UTC 01 Aug 2021

EDDM 010720Z 32010KT 290V350 9999 FEW008 BKN040 14/12 Q1011 TEMPO BKN008